Time;durP1;ratioP1;P1;durP2;ratioP2;P2;SDS_P1;SDS_P2;PMS_P1;PMS_P2;Temp;Humidity;BMP_temperature;BMP_pressure;BME280_temperature;BME280_humidity;BME280_pressure;Samples;Min_cycle;Max_cycle;Signal;HPM_P1;HPM_P2
2022/08/19 00:00:27;;;;;;;20.33;3.60;;;;;;;13.47;78.41;100034.91;4990171;28;20041;-84
2022/08/19 00:02:53;;;;;;;26.13;3.50;;;;;;;13.45;78.68;100024.47;4985932;28;20080;-81
2022/08/19 00:05:21;;;;;;;18.67;3.42;;;;;;;13.46;78.68;100030.59;4971768;28;20034;-82
2022/08/19 00:07:48;;;;;;;25.88;4.40;;;;;;;13.43;79.07;100033.59;4991502;28;20030;-81
2022/08/19 00:10:16;;;;;;;19.92;3.00;;;;;;;13.40;79.71;100035.59;4969402;28;20039;-80
2022/08/19 00:12:42;;;;;;;24.73;3.63;;;;;;;13.35;79.95;100029.97;4989162;28;20108;-81
2022/08/19 00:15:12;;;;;;;23.50;4.13;;;;;;;13.38;79.77;100037.59;4994083;28;20443;-78
2022/08/19 00:17:42;;;;;;;19.38;3.00;;;;;;;13.39;80.14;100039.25;4975073;28;20026;-82
2022/08/19 00:20:10;;;;;;;26.92;4.32;;;;;;;13.40;80.41;100030.28;4982355;28;20038;-78
2022/08/19 00:22:37;;;;;;;20.20;3.50;;;;;;;13.39;80.18;100028.63;4997237;28;20044;-80
2022/08/19 00:25:04;;;;;;;20.02;3.70;;;;;;;13.42;80.33;100038.09;5030555;28;20034;-81
2022/08/19 00:27:30;;;;;;;25.90;3.55;;;;;;;13.41;80.64;100039.06;5014116;28;20026;-83
2022/08/19 00:29:56;;;;;;;18.17;3.42;;;;;;;13.36;80.86;100038.78;4997840;28;20041;-85
2022/08/19 00:32:22;;;;;;;29.02;4.28;;;;;;;13.34;80.98;100027.50;4957198;28;20046;-81
2022/08/19 00:34:47;;;;;;;25.25;3.75;;;;;;;13.32;80.98;100037.44;5021092;28;20049;-82
2022/08/19 00:37:13;;;;;;;22.33;3.67;;;;;;;13.25;81.16;100042.66;4998012;28;20057;-82
2022/08/19 00:39:39;;;;;;;23.40;4.40;;;;;;;13.23;81.40;100048.13;4988126;28;20496;-81
2022/08/19 00:42:06;;;;;;;24.00;4.35;;;;;;;13.20;81.37;100043.16;4950196;28;20034;-82
2022/08/19 00:44:32;;;;;;;18.60;3.03;;;;;;;13.22;81.42;100043.78;4962445;28;20259;-83
2022/08/19 00:46:58;;;;;;;26.90;4.00;;;;;;;13.22;81.36;100054.41;5011372;28;20033;-83
2022/08/19 00:49:30;;;;;;;19.35;3.53;;;;;;;13.23;81.66;100058.75;5015266;28;20045;-85
2022/08/19 00:52:13;;;;;;;26.40;3.22;;;;;;;13.25;81.74;100055.91;4979781;28;20508;-82
2022/08/19 00:54:41;;;;;;;26.63;4.13;;;;;;;13.26;81.93;100057.56;4997352;28;20026;-82
2022/08/19 00:57:12;;;;;;;20.70;3.25;;;;;;;13.31;81.84;100063.19;5001421;28;20040;-82
2022/08/19 00:59:39;;;;;;;21.38;3.15;;;;;;;13.35;81.97;100063.66;4980423;28;20033;-83
2022/08/19 01:02:06;;;;;;;20.02;3.17;;;;;;;13.40;81.90;100064.81;4997280;28;20041;-82
2022/08/19 01:04:32;;;;;;;14.93;3.13;;;;;;;13.40;81.94;100070.13;4990314;28;20039;-80
2022/08/19 01:06:59;;;;;;;20.40;3.78;;;;;;;13.43;81.72;100063.63;5021824;28;20133;-83
2022/08/19 01:09:25;;;;;;;19.38;3.55;;;;;;;13.47;81.91;100064.13;4990459;28;20045;-81
2022/08/19 01:11:51;;;;;;;22.13;3.10;;;;;;;13.49;81.64;100067.44;4995884;28;20030;-83
2022/08/19 01:14:18;;;;;;;23.25;4.05;;;;;;;13.47;81.68;100069.44;4978741;28;20142;-81
2022/08/19 01:16:46;;;;;;;25.63;4.30;;;;;;;13.48;81.63;100063.09;4987350;28;20034;-84
2022/08/19 01:19:28;;;;;;;30.40;4.13;;;;;;;13.46;81.50;100063.28;4978710;28;20034;-83
2022/08/19 01:22:03;;;;;;;19.38;3.63;;;;;;;13.41;81.55;100057.66;5019667;28;20070;-83
2022/08/19 01:24:30;;;;;;;24.17;3.63;;;;;;;13.38;82.00;100058.84;5007135;28;20030;-85
2022/08/19 01:26:56;;;;;;;16.90;3.22;;;;;;;13.39;81.83;100063.13;4992871;28;20137;-82
2022/08/19 01:29:22;;;;;;;13.35;2.83;;;;;;;13.38;81.79;100056.19;4998504;28;20467;-84
2022/08/19 01:31:48;;;;;;;19.00;3.63;;;;;;;13.35;81.80;100059.19;4986216;28;20030;-82
2022/08/19 01:34:14;;;;;;;15.45;2.58;;;;;;;13.34;82.02;100059.34;4985270;28;20029;-82
2022/08/19 01:36:46;;;;;;;19.25;3.15;;;;;;;13.33;81.91;100060.38;5009852;28;20034;-83
2022/08/19 01:39:24;;;;;;;19.38;3.35;;;;;;;13.30;82.30;100064.16;5012092;28;20111;-81
2022/08/19 01:41:54;;;;;;;19.55;4.50;;;;;;;13.30;81.79;100064.16;4978044;28;20049;-82
2022/08/19 01:44:23;;;;;;;13.18;1.92;;;;;;;13.26;81.96;100069.00;4994274;28;20266;-85
2022/08/19 01:46:50;;;;;;;14.43;3.60;;;;;;;13.23;81.86;100065.88;5004947;28;20041;-82
2022/08/19 01:49:19;;;;;;;14.45;3.55;;;;;;;13.17;81.96;100074.50;4991713;28;20069;-81
2022/08/19 01:51:46;;;;;;;19.27;2.35;;;;;;;13.07;81.84;100072.03;5009843;28;20031;-81
2022/08/19 01:54:15;;;;;;;13.60;1.73;;;;;;;12.98;82.06;100073.91;5006271;28;20106;-81
2022/08/19 01:56:41;;;;;;;13.65;2.88;;;;;;;12.84;82.63;100070.09;5010799;28;20045;-80
2022/08/19 01:59:11;;;;;;;16.30;3.35;;;;;;;12.82;82.81;100075.56;4998753;28;20030;-80
2022/08/19 02:01:37;;;;;;;16.85;2.85;;;;;;;12.78;82.76;100076.91;5016964;28;20026;-81
2022/08/19 02:04:04;;;;;;;15.43;2.47;;;;;;;12.78;82.94;100072.44;5010300;28;20041;-81
2022/08/19 02:06:30;;;;;;;17.85;3.10;;;;;;;12.78;82.99;100072.44;4993412;28;20038;-82
2022/08/19 02:08:57;;;;;;;14.60;3.13;;;;;;;12.80;83.01;100074.94;4993061;28;20037;-81
2022/08/19 02:11:26;;;;;;;14.82;2.03;;;;;;;12.78;83.13;100067.16;4984246;28;20392;-80
2022/08/19 02:13:53;;;;;;;24.00;2.95;;;;;;;12.79;83.41;100065.28;5026731;28;20385;-83
2022/08/19 02:16:19;;;;;;;10.98;2.15;;;;;;;12.81;83.26;100068.63;4984664;28;20072;-82
2022/08/19 02:18:48;;;;;;;16.80;2.45;;;;;;;12.83;83.04;100056.03;5010920;28;20112;-81
2022/08/19 02:21:15;;;;;;;19.08;2.50;;;;;;;12.85;82.91;100072.56;4985706;28;20049;-81
2022/08/19 02:23:42;;;;;;;21.73;3.33;;;;;;;12.85;82.77;100075.22;4995404;28;20034;-81
2022/08/19 02:26:08;;;;;;;13.00;2.38;;;;;;;12.87;82.82;100069.75;4988929;28;20034;-81
2022/08/19 02:28:34;;;;;;;12.40;3.05;;;;;;;12.89;82.76;100071.25;5027727;28;20033;-84
2022/08/19 02:31:02;;;;;;;14.52;2.10;;;;;;;12.91;82.63;100079.06;5010602;28;20033;-82
2022/08/19 02:33:29;;;;;;;16.58;2.47;;;;;;;12.89;82.83;100068.63;5025371;28;20072;-82
2022/08/19 02:35:54;;;;;;;16.65;4.22;;;;;;;12.86;83.24;100068.94;5021680;28;20046;-81
2022/08/19 02:38:26;;;;;;;12.68;2.45;;;;;;;12.84;83.28;100070.09;5008836;28;20045;-81
2022/08/19 02:41:05;;;;;;;12.20;2.40;;;;;;;12.81;83.34;100071.28;5023376;28;20026;-82
2022/08/19 02:43:32;;;;;;;13.10;2.53;;;;;;;12.78;83.52;100069.78;4990425;28;20510;-81
2022/08/19 02:45:57;;;;;;;13.80;2.88;;;;;;;12.71;83.46;100070.63;5002561;28;20152;-81
2022/08/19 02:48:25;;;;;;;13.02;2.25;;;;;;;12.65;83.83;100065.00;4959711;28;20492;-80
2022/08/19 02:50:55;;;;;;;11.80;2.83;;;;;;;12.64;83.81;100075.78;4967319;28;20039;-84
2022/08/19 02:53:26;;;;;;;16.80;3.00;;;;;;;12.59;83.80;100078.94;4972094;28;20455;-83
2022/08/19 02:55:52;;;;;;;13.40;2.30;;;;;;;12.56;84.39;100089.88;5008442;28;20087;-83
2022/08/19 02:58:21;;;;;;;13.10;2.15;;;;;;;12.56;84.34;100089.03;4977506;28;20038;-81
2022/08/19 03:00:52;;;;;;;14.35;2.72;;;;;;;12.57;84.01;100088.03;5008361;28;20065;-81
2022/08/19 03:03:19;;;;;;;15.73;3.13;;;;;;;12.57;84.45;100085.38;4988888;28;20392;-81
2022/08/19 03:05:45;;;;;;;15.88;2.85;;;;;;;12.57;84.28;100090.66;4974352;28;20053;-81
2022/08/19 03:08:12;;;;;;;22.55;2.80;;;;;;;12.59;84.42;100080.75;5018981;28;20035;-83
2022/08/19 03:10:44;;;;;;;12.60;1.83;;;;;;;12.60;84.11;100085.03;4988125;28;20121;-81
2022/08/19 03:13:15;;;;;;;17.90;2.53;;;;;;;12.59;84.58;100084.22;5005378;28;20507;-82
2022/08/19 03:15:46;;;;;;;23.20;4.05;;;;;;;12.56;84.26;100081.06;4997841;28;20532;-83
2022/08/19 03:18:13;;;;;;;15.80;2.42;;;;;;;12.51;84.22;100079.75;4987232;28;20406;-81
2022/08/19 03:20:44;;;;;;;20.45;2.70;;;;;;;12.49;84.09;100081.75;4983061;28;20096;-81
2022/08/19 03:23:11;;;;;;;17.73;3.25;;;;;;;12.43;84.35;100070.97;4985183;28;20039;-82
2022/08/19 03:25:41;;;;;;;18.25;3.13;;;;;;;12.36;84.09;100081.44;4986610;28;20081;-83
2022/08/19 03:28:07;;;;;;;15.73;2.45;;;;;;;12.28;84.71;100074.28;4966146;28;20109;-81
2022/08/19 03:30:33;;;;;;;17.05;2.47;;;;;;;12.23;84.73;100074.75;4964233;28;20038;-83
2022/08/19 03:32:59;;;;;;;16.33;2.72;;;;;;;12.17;85.10;100086.03;4975089;28;20042;-82
2022/08/19 03:35:25;;;;;;;13.18;1.83;;;;;;;12.15;85.36;100080.88;4983291;28;20034;-84
2022/08/19 03:37:52;;;;;;;12.13;2.03;;;;;;;12.18;85.48;100079.75;5009076;28;20509;-82
2022/08/19 03:40:18;;;;;;;9.23;1.85;;;;;;;12.20;85.85;100080.41;4967319;28;20031;-82
2022/08/19 03:42:45;;;;;;;17.38;2.85;;;;;;;12.24;86.07;100078.25;4988097;28;20041;-81
2022/08/19 03:45:11;;;;;;;13.55;2.15;;;;;;;12.28;86.49;100072.47;4982514;28;20038;-80
2022/08/19 03:47:38;;;;;;;11.85;1.50;;;;;;;12.32;86.37;100075.63;4972837;28;20084;-83
2022/08/19 03:50:04;;;;;;;12.25;2.10;;;;;;;12.38;86.48;100082.06;5011655;28;20038;-80
2022/08/19 03:52:30;;;;;;;13.93;2.45;;;;;;;12.40;86.91;100078.28;4994494;28;20030;-84
2022/08/19 03:54:56;;;;;;;8.65;1.58;;;;;;;12.46;86.97;100083.88;4963794;28;20045;-81
2022/08/19 03:57:21;;;;;;;10.60;1.67;;;;;;;12.50;87.35;100090.53;4969011;28;20044;-81
2022/08/19 03:59:47;;;;;;;15.32;2.42;;;;;;;12.56;87.07;100087.22;4971142;28;20042;-82
2022/08/19 04:02:13;;;;;;;11.48;1.70;;;;;;;12.58;87.13;100085.19;4985814;28;20043;-83
2022/08/19 04:04:42;;;;;;;16.42;2.00;;;;;;;12.57;86.89;100083.56;4982657;28;20583;-81
2022/08/19 04:07:10;;;;;;;14.73;2.30;;;;;;;12.57;87.46;100085.38;4998203;28;20051;-82
2022/08/19 04:09:36;;;;;;;12.00;1.92;;;;;;;12.55;87.30;100082.06;5014182;28;20035;-82
2022/08/19 04:12:05;;;;;;;8.55;1.52;;;;;;;12.53;87.47;100079.59;4997075;28;20408;-82
2022/08/19 04:14:33;;;;;;;10.80;1.85;;;;;;;12.53;87.72;100084.91;4993709;28;20101;-83
2022/08/19 04:17:00;;;;;;;12.02;1.42;;;;;;;12.51;87.81;100094.81;5010404;28;20038;-83
2022/08/19 04:19:27;;;;;;;9.27;1.77;;;;;;;12.51;88.27;100094.81;5008012;28;20115;-85
2022/08/19 04:21:54;;;;;;;10.57;1.65;;;;;;;12.53;88.65;100101.59;4951075;28;20126;-84
2022/08/19 04:24:21;;;;;;;7.80;1.40;;;;;;;12.56;88.75;100091.69;4992944;28;20125;-82
2022/08/19 04:26:47;;;;;;;11.02;1.60;;;;;;;12.57;89.01;100098.63;5009026;28;20038;-83
2022/08/19 04:29:21;;;;;;;14.40;2.15;;;;;;;12.56;89.24;100097.81;4991216;28;20026;-84
2022/08/19 04:31:48;;;;;;;12.77;2.35;;;;;;;12.57;89.64;100091.50;4988227;28;20464;-83
2022/08/19 04:34:17;;;;;;;11.05;2.10;;;;;;;12.62;89.79;100093.66;5008970;28;20036;-82
2022/08/19 04:36:44;;;;;;;9.73;1.33;;;;;;;12.62;89.53;100089.19;5003355;28;20033;-82
2022/08/19 04:39:15;;;;;;;8.63;1.38;;;;;;;12.61;89.56;100084.88;5023073;28;20119;-81
2022/08/19 04:44:30;;;;;;;14.00;1.85;;;;;;;12.65;90.03;100080.06;5009777;28;20065;-84
2022/08/19 04:46:56;;;;;;;8.68;1.88;;;;;;;12.67;90.16;100080.75;4985543;28;20026;-84
2022/08/19 04:49:23;;;;;;;9.70;1.88;;;;;;;12.68;89.98;100077.09;4954335;28;20053;-83
2022/08/19 04:51:53;;;;;;;17.13;2.20;;;;;;;12.68;90.43;100079.72;4990231;28;20076;-85
2022/08/19 04:54:22;;;;;;;9.82;1.75;;;;;;;12.64;90.12;100084.56;4953392;28;21437;-82
2022/08/19 04:56:52;;;;;;;11.98;2.38;;;;;;;12.64;90.22;100081.06;4977206;28;20378;-83
2022/08/19 04:59:19;;;;;;;9.75;1.63;;;;;;;12.65;90.80;100090.69;4979508;28;20485;-83
2022/08/19 05:01:49;;;;;;;11.45;2.10;;;;;;;12.65;90.56;100091.50;5002271;28;20026;-81
2022/08/19 05:04:17;;;;;;;9.80;1.52;;;;;;;12.61;90.66;100089.38;4984754;28;20034;-83
2022/08/19 05:06:43;;;;;;;9.43;1.85;;;;;;;12.62;90.83;100094.50;4959386;28;20042;-83
2022/08/19 05:09:08;;;;;;;9.13;1.75;;;;;;;12.64;90.66;100092.53;5013972;28;20057;-81
2022/08/19 05:11:38;;;;;;;14.70;1.88;;;;;;;12.67;90.60;100098.47;4991200;28;20081;-85
2022/08/19 05:14:05;;;;;;;11.73;1.45;;;;;;;12.64;90.40;100099.63;4997246;28;20457;-82
2022/08/19 05:16:31;;;;;;;11.55;1.35;;;;;;;12.62;90.58;100107.75;4991682;28;20041;-82
2022/08/19 05:24:27;;;;;;;9.25;1.92;;;;;;;12.47;91.14;100096.16;4992250;28;20031;-80
2022/08/19 05:26:56;;;;;;;11.75;1.75;;;;;;;12.47;91.18;100110.22;4979888;28;20640;-80
2022/08/19 05:29:24;;;;;;;8.65;1.20;;;;;;;12.48;91.39;100105.75;5006154;28;20557;-82
2022/08/19 05:31:50;;;;;;;9.70;2.00;;;;;;;12.47;90.92;100107.56;5005768;28;20038;-80
2022/08/19 05:34:17;;;;;;;10.02;1.27;;;;;;;12.47;91.10;100112.88;4973347;28;20038;-80
2022/08/19 05:36:45;;;;;;;6.32;1.75;;;;;;;12.47;90.71;100110.22;4988680;28;20105;-83
2022/08/19 05:39:15;;;;;;;11.40;1.45;;;;;;;12.46;91.11;100110.38;5017467;28;20066;-82
2022/08/19 05:41:43;;;;;;;6.88;0.93;;;;;;;12.40;90.77;100109.25;4957724;28;20041;-82
2022/08/19 05:44:09;;;;;;;15.13;1.77;;;;;;;12.39;91.06;100115.53;5001810;28;20058;-82
2022/08/19 05:46:37;;;;;;;12.60;1.90;;;;;;;12.36;90.89;100119.34;4984576;28;20083;-81
2022/08/19 05:49:06;;;;;;;10.35;1.60;;;;;;;12.36;90.65;100110.56;5018562;28;20070;-80
2022/08/19 05:51:34;;;;;;;13.40;1.85;;;;;;;12.32;91.25;100112.72;4979247;28;20097;-84
2022/08/19 05:54:01;;;;;;;8.40;1.40;;;;;;;12.33;91.18;100110.88;4973781;28;20023;-79
2022/08/19 05:56:27;;;;;;;12.10;1.30;;;;;;;12.34;91.00;100120.50;5005662;28;20034;-81
2022/08/19 05:58:53;;;;;;;8.40;1.30;;;;;;;12.33;90.91;100122.31;4994823;28;20107;-80
2022/08/19 06:01:20;;;;;;;9.57;1.55;;;;;;;12.37;90.91;100130.78;4957295;28;20639;-80
2022/08/19 06:03:47;;;;;;;17.20;2.67;;;;;;;12.36;90.71;100123.81;4984134;28;20398;-82
2022/08/19 06:06:15;;;;;;;11.38;1.40;;;;;;;12.45;90.71;100128.13;4998533;28;20527;-83
2022/08/19 06:08:42;;;;;;;9.43;1.40;;;;;;;12.47;90.68;100125.31;4994227;28;20051;-81
2022/08/19 06:11:32;;;;;;;10.18;1.77;;;;;;;12.46;89.92;100124.47;4990673;28;20035;-80
2022/08/19 06:14:02;;;;;;;10.60;1.30;;;;;;;12.49;90.35;100126.81;4963854;28;20508;-81
2022/08/19 06:16:31;;;;;;;11.45;1.58;;;;;;;12.51;90.63;100124.81;4998038;28;20041;-80
2022/08/19 06:19:00;;;;;;;8.60;1.58;;;;;;;12.57;89.95;100131.28;4986476;28;20040;-80
2022/08/19 06:21:28;;;;;;;8.98;1.75;;;;;;;12.59;90.26;100133.75;4988741;28;20041;-80
2022/08/19 06:23:56;;;;;;;9.98;1.52;;;;;;;12.65;89.95;100139.25;4960791;28;20511;-82
2022/08/19 06:26:24;;;;;;;9.88;1.48;;;;;;;12.68;90.07;100146.03;4980477;28;20039;-83
2022/08/19 06:28:50;;;;;;;10.45;1.50;;;;;;;12.71;89.65;100137.75;4963674;28;20061;-81
2022/08/19 06:31:31;;;;;;;11.65;1.70;;;;;;;12.76;89.42;100137.25;5003869;28;20034;-80
2022/08/19 06:33:56;;;;;;;10.00;2.38;;;;;;;12.77;89.67;100141.56;4970809;28;20128;-81
2022/08/19 06:36:35;;;;;;;9.30;1.65;;;;;;;12.83;89.38;100138.25;4997867;28;20109;-83
2022/08/19 06:39:07;;;;;;;9.68;1.63;;;;;;;12.86;89.66;100139.72;5002050;28;20046;-80
2022/08/19 06:41:39;;;;;;;9.48;1.55;;;;;;;12.85;89.35;100144.19;5020333;28;20039;-80
2022/08/19 06:44:05;;;;;;;9.65;1.70;;;;;;;12.86;89.59;100137.91;4990994;28;20049;-83
2022/08/19 06:46:31;;;;;;;8.95;1.55;;;;;;;12.87;89.94;100138.72;5005543;28;20038;-83
2022/08/19 06:48:58;;;;;;;10.10;1.50;;;;;;;12.89;89.89;100142.03;5021376;28;20038;-82
2022/08/19 06:51:24;;;;;;;7.78;1.50;;;;;;;12.94;89.60;100146.84;4964593;28;20042;-82
2022/08/19 06:53:52;;;;;;;8.52;1.08;;;;;;;12.97;89.94;100144.69;4972926;28;20184;-80
2022/08/19 06:56:21;;;;;;;6.80;1.13;;;;;;;13.03;89.83;100144.03;5004628;28;20047;-80
2022/08/19 06:58:51;;;;;;;14.20;1.75;;;;;;;13.08;89.87;100148.81;4943504;28;20042;-82
2022/08/19 07:01:17;;;;;;;7.03;1.00;;;;;;;13.13;89.99;100153.63;5008367;28;20031;-83
2022/08/19 07:03:43;;;;;;;9.10;1.40;;;;;;;13.21;90.22;100145.66;5015502;28;20038;-81
2022/08/19 07:06:17;;;;;;;4.97;1.40;;;;;;;13.38;90.55;100158.88;5007332;28;20055;-81
2022/08/19 07:08:44;;;;;;;3.25;0.68;;;;;;;13.43;89.86;100153.88;4988533;28;20401;-80
2022/08/19 07:11:12;;;;;;;8.50;1.42;;;;;;;13.47;90.11;100157.03;4985088;28;20034;-82
2022/08/19 07:13:39;;;;;;;7.97;1.63;;;;;;;13.46;89.63;100163.31;4985412;28;20716;-82
2022/08/19 07:16:11;;;;;;;9.52;1.08;;;;;;;13.46;89.45;100173.94;5007082;28;20041;-80
2022/08/19 07:18:38;;;;;;;8.27;1.30;;;;;;;13.43;89.28;100164.50;5010743;28;20093;-82
2022/08/19 07:21:06;;;;;;;5.40;0.60;;;;;;;13.44;89.14;100176.78;5007674;28;20045;-83
2022/08/19 07:23:33;;;;;;;5.63;1.00;;;;;;;13.42;89.14;100178.78;5010933;28;20034;-82
2022/08/19 07:26:04;;;;;;;8.05;1.10;;;;;;;13.42;89.18;100176.13;5011579;28;20042;-80
2022/08/19 07:28:30;;;;;;;7.30;1.30;;;;;;;13.38;89.09;100175.63;5018569;28;20057;-82
2022/08/19 07:30:56;;;;;;;7.53;0.90;;;;;;;13.44;89.28;100182.09;4989164;28;20069;-81
2022/08/19 07:33:21;;;;;;;4.22;0.82;;;;;;;13.45;89.03;100181.09;4972342;28;20034;-83
2022/08/19 07:35:48;;;;;;;3.58;0.60;;;;;;;13.51;89.05;100184.94;4965290;28;20039;-83
2022/08/19 07:38:15;;;;;;;8.70;1.70;;;;;;;13.57;88.98;100189.56;4944053;28;20038;-80
2022/08/19 07:40:43;;;;;;;4.50;0.70;;;;;;;13.61;88.52;100184.75;5003990;28;20077;-82
2022/08/19 07:43:09;;;;;;;6.65;0.77;;;;;;;13.65;88.72;100199.31;5026426;28;20038;-82
2022/08/19 07:45:35;;;;;;;5.03;0.70;;;;;;;13.65;88.86;100204.63;4961648;28;20415;-78
2022/08/19 07:48:00;;;;;;;4.38;0.50;;;;;;;13.64;88.54;100201.16;4988696;28;20572;-82
2022/08/19 07:50:26;;;;;;;10.88;0.98;;;;;;;13.66;88.72;100202.81;4970594;28;20057;-80
2022/08/19 07:52:52;;;;;;;7.60;0.90;;;;;;;13.68;88.74;100192.84;4993703;28;20121;-81
2022/08/19 07:55:25;;;;;;;7.13;0.65;;;;;;;13.80;88.63;100196.78;5003205;28;20056;-81
2022/08/19 07:57:53;;;;;;;6.13;1.02;;;;;;;13.99;88.75;100192.91;5024494;28;20030;-82
2022/08/19 08:00:18;;;;;;;3.50;0.60;;;;;;;14.18;88.35;100196.13;4987761;28;20043;-79
2022/08/19 08:02:44;;;;;;;5.50;0.82;;;;;;;14.19;87.31;100194.31;4976314;28;20061;-83
2022/08/19 08:10:39;;;;;;;4.43;0.93;;;;;;;14.34;87.05;100197.03;4998805;28;20049;-80
2022/08/19 08:13:05;;;;;;;8.07;1.33;;;;;;;14.40;86.42;100198.97;5016508;28;20552;-83
2022/08/19 08:15:31;;;;;;;6.40;1.02;;;;;;;14.55;86.22;100206.22;4983020;28;20560;-81
2022/08/19 08:17:57;;;;;;;8.40;1.38;;;;;;;14.58;85.59;100200.53;5010107;28;20031;-80
2022/08/19 08:20:23;;;;;;;9.40;1.30;;;;;;;14.58;85.23;100203.19;5001103;28;20039;-83
2022/08/19 08:25:35;;;;;;;11.90;1.25;;;;;;;14.67;84.53;100201.31;4987684;28;20469;-80
2022/08/19 08:28:01;;;;;;;7.47;1.45;;;;;;;14.69;84.22;100197.47;4993992;28;20034;-81
2022/08/19 08:30:29;;;;;;;5.63;1.02;;;;;;;14.71;83.94;100202.63;4970584;28;20072;-80
2022/08/19 08:32:55;;;;;;;7.22;1.10;;;;;;;14.65;83.48;100204.16;4993681;28;20041;-81
2022/08/19 08:35:23;;;;;;;7.95;1.15;;;;;;;14.68;83.65;100198.47;4986487;28;20109;-82
2022/08/19 08:37:51;;;;;;;10.98;1.20;;;;;;;14.74;83.79;100203.09;4988186;28;20043;-80
2022/08/19 08:40:36;;;;;;;8.52;1.45;;;;;;;14.84;83.11;100207.38;4999670;28;20034;-81
2022/08/19 08:43:28;;;;;;;8.13;1.38;;;;;;;14.97;82.91;100204.13;5018735;28;20623;-81
2022/08/19 08:46:13;;;;;;;7.55;1.50;;;;;;;15.06;82.44;100211.03;4989817;28;20140;-82
2022/08/19 08:48:46;;;;;;;4.50;0.77;;;;;;;15.11;82.02;100213.94;4983416;28;20034;-78
2022/08/19 08:51:23;;;;;;;6.53;1.58;;;;;;;15.13;81.36;100203.94;5018427;28;20440;-80
2022/08/19 08:53:51;;;;;;;9.98;1.13;;;;;;;15.13;81.60;100214.59;5008671;28;20030;-81
2022/08/19 08:56:18;;;;;;;8.80;1.50;;;;;;;15.21;81.76;100212.88;4985228;28;20062;-81
2022/08/19 08:58:53;;;;;;;4.57;0.90;;;;;;;15.30;81.29;100210.97;5002997;28;20037;-81
2022/08/19 09:01:20;;;;;;;5.32;1.10;;;;;;;15.31;80.95;100216.09;4989390;28;20441;-79
2022/08/19 09:03:46;;;;;;;6.20;0.88;;;;;;;15.33;80.80;100221.25;4987447;28;20108;-79
2022/08/19 09:06:22;;;;;;;6.97;1.23;;;;;;;15.28;80.55;100215.63;4992236;28;20054;-80
2022/08/19 09:08:48;;;;;;;6.88;1.35;;;;;;;15.21;80.67;100211.03;4971099;28;20500;-81
2022/08/19 09:11:25;;;;;;;11.95;1.13;;;;;;;15.15;80.67;100214.41;4969783;28;20042;-81
2022/08/19 09:14:13;;;;;;;8.50;1.35;;;;;;;15.07;80.39;100215.31;4987120;28;20030;-79
2022/08/19 09:16:40;;;;;;;11.35;1.48;;;;;;;15.06;80.69;100215.50;4990440;28;20050;-80
2022/08/19 09:19:07;;;;;;;13.50;1.52;;;;;;;15.04;80.79;100221.00;4992753;28;20064;-81
2022/08/19 09:21:34;;;;;;;12.73;1.80;;;;;;;15.06;80.60;100216.34;4988568;28;20045;-80
2022/08/19 09:24:02;;;;;;;9.63;1.42;;;;;;;15.17;80.48;100216.91;5026080;28;20041;-81
2022/08/19 09:26:28;;;;;;;9.23;2.22;;;;;;;15.23;80.02;100218.84;4982563;28;20107;-80
2022/08/19 09:28:54;;;;;;;11.27;1.92;;;;;;;15.28;79.44;100221.78;4994750;28;20287;-81
2022/08/19 09:31:23;;;;;;;8.38;1.70;;;;;;;15.34;79.27;100218.41;5009114;28;20117;-80
2022/08/19 09:33:50;;;;;;;6.50;1.52;;;;;;;15.34;78.66;100215.75;4981782;28;20436;-82
2022/08/19 09:36:18;;;;;;;14.93;1.70;;;;;;;15.34;78.71;100218.41;4976647;28;20043;-82
2022/08/19 09:38:44;;;;;;;11.63;2.13;;;;;;;15.32;79.14;100217.75;5013245;28;20030;-81
2022/08/19 09:41:14;;;;;;;11.43;1.77;;;;;;;15.31;79.20;100212.59;4995368;28;20046;-82
2022/08/19 09:43:41;;;;;;;8.57;1.60;;;;;;;15.29;79.73;100215.44;4978730;28;20030;-82
2022/08/19 09:46:11;;;;;;;9.35;1.63;;;;;;;15.11;80.84;100224.59;4960776;28;20396;-80
2022/08/19 09:48:41;;;;;;;18.10;2.13;;;;;;;14.95;81.73;100214.94;5026931;28;20034;-80
2022/08/19 09:51:10;;;;;;;12.45;2.53;;;;;;;14.81;82.86;100224.50;4989114;28;20037;-81
2022/08/19 09:53:37;;;;;;;13.15;2.28;;;;;;;14.75;83.73;100223.34;5001960;28;20460;-81
2022/08/19 09:56:04;;;;;;;13.50;2.10;;;;;;;14.78;84.30;100224.03;4992122;28;20521;-84
2022/08/19 09:58:31;;;;;;;15.57;2.75;;;;;;;14.76;84.77;100225.00;5009278;28;20044;-80
2022/08/19 10:00:59;;;;;;;10.98;2.22;;;;;;;14.79;85.09;100217.69;4988755;28;20031;-80
2022/08/19 10:03:26;;;;;;;12.27;2.15;;;;;;;14.82;85.61;100217.34;4988702;28;20026;-81
2022/08/19 10:05:52;;;;;;;15.63;2.17;;;;;;;14.87;86.06;100210.47;4959448;28;20136;-80
2022/08/19 10:08:23;;;;;;;14.27;2.20;;;;;;;15.00;85.75;100207.22;4986029;28;20026;-81
2022/08/19 10:10:50;;;;;;;11.30;2.15;;;;;;;15.14;85.38;100204.78;4993696;28;20070;-81
2022/08/19 10:13:22;;;;;;;12.50;2.22;;;;;;;15.31;84.64;100209.94;4991670;28;20096;-81
2022/08/19 10:15:50;;;;;;;12.80;2.30;;;;;;;15.46;84.35;100204.66;5007255;28;20058;-81
2022/08/19 10:18:19;;;;;;;7.93;1.63;;;;;;;15.69;83.42;100199.22;4996701;28;20030;-82
2022/08/19 10:20:50;;;;;;;7.85;1.60;;;;;;;16.00;81.40;100194.72;4989765;28;20055;-80
2022/08/19 10:23:17;;;;;;;19.85;1.90;;;;;;;16.18;78.80;100191.66;4989140;28;20034;-81
2022/08/19 10:25:43;;;;;;;11.88;1.65;;;;;;;16.24;77.15;100201.56;4980532;28;20056;-80
2022/08/19 10:28:11;;;;;;;12.43;2.22;;;;;;;16.23;75.74;100191.06;5007994;28;20488;-79
2022/08/19 10:30:41;;;;;;;8.93;1.52;;;;;;;16.24;74.69;100196.22;4994707;28;20034;-80
2022/08/19 10:33:07;;;;;;;12.75;2.45;;;;;;;16.27;74.40;100200.38;4989291;28;20392;-80
2022/08/19 10:35:33;;;;;;;8.45;1.52;;;;;;;16.44;73.52;100187.63;4977564;28;20054;-80
2022/08/19 10:38:01;;;;;;;10.02;1.63;;;;;;;16.64;73.15;100192.34;5002159;28;20449;-84
2022/08/19 10:40:28;;;;;;;9.32;2.15;;;;;;;16.88;72.67;100192.97;5023881;28;20038;-81
2022/08/19 10:42:55;;;;;;;6.40;1.83;;;;;;;17.11;71.81;100198.09;4988609;28;20396;-80
2022/08/19 10:45:23;;;;;;;11.90;2.05;;;;;;;17.19;70.28;100188.28;5003052;28;20120;-81
2022/08/19 10:47:48;;;;;;;7.97;1.55;;;;;;;17.13;69.44;100189.91;5017925;28;20508;-80
2022/08/19 10:53:04;;;;;;;13.23;1.70;;;;;;;17.20;68.12;100189.94;5013086;28;20434;-78
2022/08/19 10:58:22;;;;;;;11.88;1.80;;;;;;;17.12;68.01;100174.88;4981040;28;20038;-80
2022/08/19 11:00:57;;;;;;;5.13;1.42;;;;;;;17.14;67.11;100175.50;4983939;28;20489;-80
2022/08/19 11:03:24;;;;;;;5.10;1.55;;;;;;;17.31;67.03;100185.91;4985038;28;20489;-82
2022/08/19 11:06:06;;;;;;;8.82;1.75;;;;;;;17.56;66.07;100167.56;4955116;28;20094;-80
2022/08/19 11:08:34;;;;;;;12.75;1.90;;;;;;;17.73;65.74;100168.03;4930330;28;20548;-82
2022/08/19 11:11:02;;;;;;;9.15;2.15;;;;;;;17.93;65.12;100169.16;5006695;28;20042;-81
2022/08/19 11:13:30;;;;;;;9.15;1.73;;;;;;;18.05;64.51;100164.88;4991218;28;20109;-81
2022/08/19 11:16:09;;;;;;;9.43;1.75;;;;;;;18.12;62.00;100164.94;4985722;28;20042;-80
2022/08/19 11:18:42;;;;;;;11.38;2.50;;;;;;;18.28;63.22;100157.56;5001313;28;20045;-79
2022/08/19 11:21:23;;;;;;;10.82;2.25;;;;;;;18.39;62.55;100167.66;5004654;28;20568;-81
2022/08/19 11:23:53;;;;;;;12.73;2.63;;;;;;;18.37;62.59;100168.88;4987856;28;20068;-80
2022/08/19 11:26:20;;;;;;;9.75;2.22;;;;;;;18.24;62.16;100175.84;5007004;28;20034;-78
2022/08/19 11:28:46;;;;;;;6.22;1.73;;;;;;;18.12;62.12;100177.47;4982093;28;20031;-78
2022/08/19 11:31:16;;;;;;;9.65;1.98;;;;;;;18.02;62.36;100185.84;5010306;28;20510;-79
2022/08/19 11:33:43;;;;;;;5.43;1.67;;;;;;;17.90;62.07;100175.72;5015301;28;20041;-78
2022/08/19 11:36:09;;;;;;;5.13;1.60;;;;;;;17.83;62.35;100191.75;4989415;28;20449;-78
2022/08/19 11:38:36;;;;;;;7.13;1.88;;;;;;;17.79;62.34;100190.47;5010777;28;20033;-81
2022/08/19 11:41:07;;;;;;;7.22;2.30;;;;;;;17.70;62.33;100200.53;4992405;28;20113;-78
2022/08/19 11:43:34;;;;;;;9.38;1.95;;;;;;;17.67;62.29;100189.38;5023202;28;20050;-78
2022/08/19 11:46:07;;;;;;;14.18;2.13;;;;;;;17.74;62.40;100184.91;4962392;28;20400;-78